sensor_id;sensor_type;location;lat;lon;timestamp;P1;durP1;ratioP1;P2;durP2;ratioP2
73168;SDS011;61379;59.732;30.468;2023-04-16T00:01:24;7.10;;;6.47;;
73168;SDS011;61379;59.732;30.468;2023-04-16T00:03:51;6.90;;;6.40;;
73168;SDS011;61379;59.732;30.468;2023-04-16T00:06:18;7.82;;;6.63;;
73168;SDS011;61379;59.732;30.468;2023-04-16T00:08:44;6.95;;;6.38;;
73168;SDS011;61379;59.732;30.468;2023-04-16T00:11:13;6.72;;;6.20;;
73168;SDS011;61379;59.732;30.468;2023-04-16T00:13:39;6.95;;;6.43;;
73168;SDS011;61379;59.732;30.468;2023-04-16T00:16:06;6.88;;;6.28;;
73168;SDS011;61379;59.732;30.468;2023-04-16T00:18:33;7.05;;;6.32;;
73168;SDS011;61379;59.732;30.468;2023-04-16T00:21:00;7.97;;;6.05;;
73168;SDS011;61379;59.732;30.468;2023-04-16T00:23:26;6.60;;;6.05;;
73168;SDS011;61379;59.732;30.468;2023-04-16T00:25:53;6.97;;;6.38;;
73168;SDS011;61379;59.732;30.468;2023-04-16T00:28:22;7.03;;;6.43;;
73168;SDS011;61379;59.732;30.468;2023-04-16T00:30:49;7.05;;;6.55;;
73168;SDS011;61379;59.732;30.468;2023-04-16T00:33:16;8.48;;;6.25;;
73168;SDS011;61379;59.732;30.468;2023-04-16T00:35:43;7.07;;;6.47;;
73168;SDS011;61379;59.732;30.468;2023-04-16T00:38:10;7.68;;;7.00;;
73168;SDS011;61379;59.732;30.468;2023-04-16T00:40:37;6.75;;;6.07;;
73168;SDS011;61379;59.732;30.468;2023-04-16T00:43:04;6.82;;;6.22;;
73168;SDS011;61379;59.732;30.468;2023-04-16T00:45:32;6.72;;;6.13;;
73168;SDS011;61379;59.732;30.468;2023-04-16T00:47:59;6.70;;;6.20;;
73168;SDS011;61379;59.732;30.468;2023-04-16T00:50:26;7.05;;;6.32;;
73168;SDS011;61379;59.732;30.468;2023-04-16T00:52:52;7.03;;;6.43;;
73168;SDS011;61379;59.732;30.468;2023-04-16T00:55:19;7.53;;;6.38;;
73168;SDS011;61379;59.732;30.468;2023-04-16T00:57:46;7.18;;;6.40;;
73168;SDS011;61379;59.732;30.468;2023-04-16T01:00:13;6.93;;;6.43;;
73168;SDS011;61379;59.732;30.468;2023-04-16T01:02:41;7.15;;;6.65;;
73168;SDS011;61379;59.732;30.468;2023-04-16T01:05:08;7.10;;;6.50;;
73168;SDS011;61379;59.732;30.468;2023-04-16T01:07:35;6.25;;;5.80;;
73168;SDS011;61379;59.732;30.468;2023-04-16T01:10:02;7.05;;;6.45;;
73168;SDS011;61379;59.732;30.468;2023-04-16T01:12:31;6.78;;;6.13;;
73168;SDS011;61379;59.732;30.468;2023-04-16T01:14:57;6.20;;;5.45;;
73168;SDS011;61379;59.732;30.468;2023-04-16T01:17:24;5.65;;;5.13;;
73168;SDS011;61379;59.732;30.468;2023-04-16T01:19:53;6.38;;;5.78;;
73168;SDS011;61379;59.732;30.468;2023-04-16T01:22:21;7.28;;;6.68;;
73168;SDS011;61379;59.732;30.468;2023-04-16T01:24:47;5.57;;;5.05;;
73168;SDS011;61379;59.732;30.468;2023-04-16T01:27:14;8.18;;;5.28;;
73168;SDS011;61379;59.732;30.468;2023-04-16T01:29:41;5.45;;;5.03;;
73168;SDS011;61379;59.732;30.468;2023-04-16T01:32:08;6.55;;;5.47;;
73168;SDS011;61379;59.732;30.468;2023-04-16T01:34:34;6.00;;;5.45;;
73168;SDS011;61379;59.732;30.468;2023-04-16T01:37:01;6.55;;;6.05;;
73168;SDS011;61379;59.732;30.468;2023-04-16T01:39:29;6.43;;;5.85;;
73168;SDS011;61379;59.732;30.468;2023-04-16T01:41:56;6.50;;;5.90;;
73168;SDS011;61379;59.732;30.468;2023-04-16T01:44:23;6.65;;;6.05;;
73168;SDS011;61379;59.732;30.468;2023-04-16T01:46:50;6.70;;;6.20;;
73168;SDS011;61379;59.732;30.468;2023-04-16T01:49:17;6.70;;;6.05;;
73168;SDS011;61379;59.732;30.468;2023-04-16T01:51:44;5.97;;;5.50;;
73168;SDS011;61379;59.732;30.468;2023-04-16T01:54:10;7.82;;;5.95;;
73168;SDS011;61379;59.732;30.468;2023-04-16T01:56:38;5.93;;;5.43;;
73168;SDS011;61379;59.732;30.468;2023-04-16T01:59:05;6.22;;;5.78;;
73168;SDS011;61379;59.732;30.468;2023-04-16T02:01:32;6.65;;;5.82;;
73168;SDS011;61379;59.732;30.468;2023-04-16T02:03:58;7.55;;;6.07;;
73168;SDS011;61379;59.732;30.468;2023-04-16T02:06:25;6.72;;;6.13;;
73168;SDS011;61379;59.732;30.468;2023-04-16T02:08:52;6.10;;;5.68;;
73168;SDS011;61379;59.732;30.468;2023-04-16T02:11:19;6.40;;;5.80;;
73168;SDS011;61379;59.732;30.468;2023-04-16T02:13:48;7.38;;;5.20;;
73168;SDS011;61379;59.732;30.468;2023-04-16T02:16:14;6.50;;;6.00;;
73168;SDS011;61379;59.732;30.468;2023-04-16T02:19:01;5.40;;;5.00;;
73168;SDS011;61379;59.732;30.468;2023-04-16T02:21:28;6.10;;;5.60;;
73168;SDS011;61379;59.732;30.468;2023-04-16T02:23:56;5.97;;;5.47;;
73168;SDS011;61379;59.732;30.468;2023-04-16T02:26:22;7.47;;;6.97;;
73168;SDS011;61379;59.732;30.468;2023-04-16T02:28:52;8.85;;;6.18;;
73168;SDS011;61379;59.732;30.468;2023-04-16T02:31:18;6.38;;;5.88;;
73168;SDS011;61379;59.732;30.468;2023-04-16T02:33:46;7.20;;;6.03;;
73168;SDS011;61379;59.732;30.468;2023-04-16T02:36:13;7.07;;;6.43;;
73168;SDS011;61379;59.732;30.468;2023-04-16T02:38:40;7.00;;;6.38;;
73168;SDS011;61379;59.732;30.468;2023-04-16T02:41:06;6.45;;;6.03;;
73168;SDS011;61379;59.732;30.468;2023-04-16T02:43:33;6.93;;;6.38;;
73168;SDS011;61379;59.732;30.468;2023-04-16T02:46:01;6.97;;;6.40;;
73168;SDS011;61379;59.732;30.468;2023-04-16T02:48:28;8.50;;;7.70;;
73168;SDS011;61379;59.732;30.468;2023-04-16T02:50:55;6.57;;;6.07;;
73168;SDS011;61379;59.732;30.468;2023-04-16T02:53:22;6.25;;;5.75;;
73168;SDS011;61379;59.732;30.468;2023-04-16T02:55:49;7.03;;;6.53;;
73168;SDS011;61379;59.732;30.468;2023-04-16T02:58:17;6.88;;;6.18;;
73168;SDS011;61379;59.732;30.468;2023-04-16T03:00:44;6.53;;;5.95;;
73168;SDS011;61379;59.732;30.468;2023-04-16T03:03:12;6.80;;;6.20;;
73168;SDS011;61379;59.732;30.468;2023-04-16T03:05:39;7.60;;;6.90;;
73168;SDS011;61379;59.732;30.468;2023-04-16T03:08:06;8.27;;;6.40;;
73168;SDS011;61379;59.732;30.468;2023-04-16T03:10:33;6.43;;;5.82;;
73168;SDS011;61379;59.732;30.468;2023-04-16T03:13:00;6.95;;;6.45;;
73168;SDS011;61379;59.732;30.468;2023-04-16T03:15:27;7.22;;;6.55;;
73168;SDS011;61379;59.732;30.468;2023-04-16T03:17:54;7.22;;;6.63;;
73168;SDS011;61379;59.732;30.468;2023-04-16T03:20:22;7.30;;;6.80;;
73168;SDS011;61379;59.732;30.468;2023-04-16T03:22:49;6.55;;;6.05;;
73168;SDS011;61379;59.732;30.468;2023-04-16T03:25:16;7.05;;;6.53;;
73168;SDS011;61379;59.732;30.468;2023-04-16T03:27:45;7.63;;;7.03;;
73168;SDS011;61379;59.732;30.468;2023-04-16T03:30:11;7.10;;;6.60;;
73168;SDS011;61379;59.732;30.468;2023-04-16T03:32:38;7.50;;;6.80;;
73168;SDS011;61379;59.732;30.468;2023-04-16T03:35:06;6.97;;;6.25;;
73168;SDS011;61379;59.732;30.468;2023-04-16T03:37:34;7.15;;;6.55;;
73168;SDS011;61379;59.732;30.468;2023-04-16T03:40:01;7.70;;;7.03;;
73168;SDS011;61379;59.732;30.468;2023-04-16T03:42:30;7.13;;;6.45;;
73168;SDS011;61379;59.732;30.468;2023-04-16T03:44:57;7.15;;;6.55;;
73168;SDS011;61379;59.732;30.468;2023-04-16T03:47:23;8.02;;;7.32;;
73168;SDS011;61379;59.732;30.468;2023-04-16T03:49:50;8.70;;;7.90;;
73168;SDS011;61379;59.732;30.468;2023-04-16T03:52:17;10.50;;;7.07;;
73168;SDS011;61379;59.732;30.468;2023-04-16T03:54:45;7.60;;;6.93;;
73168;SDS011;61379;59.732;30.468;2023-04-16T03:57:12;8.52;;;7.75;;
73168;SDS011;61379;59.732;30.468;2023-04-16T03:59:38;7.65;;;6.90;;
73168;SDS011;61379;59.732;30.468;2023-04-16T04:02:05;7.50;;;6.80;;
73168;SDS011;61379;59.732;30.468;2023-04-16T04:04:32;7.93;;;7.05;;
73168;SDS011;61379;59.732;30.468;2023-04-16T04:06:58;7.25;;;6.75;;
73168;SDS011;61379;59.732;30.468;2023-04-16T04:09:25;6.75;;;6.18;;
73168;SDS011;61379;59.732;30.468;2023-04-16T04:11:53;7.35;;;6.80;;
73168;SDS011;61379;59.732;30.468;2023-04-16T04:14:20;7.10;;;6.47;;
73168;SDS011;61379;59.732;30.468;2023-04-16T04:16:46;7.05;;;6.55;;
73168;SDS011;61379;59.732;30.468;2023-04-16T04:19:13;6.95;;;6.45;;
73168;SDS011;61379;59.732;30.468;2023-04-16T04:21:40;7.05;;;6.45;;
73168;SDS011;61379;59.732;30.468;2023-04-16T04:24:07;8.48;;;7.10;;
73168;SDS011;61379;59.732;30.468;2023-04-16T04:26:33;6.53;;;6.03;;
73168;SDS011;61379;59.732;30.468;2023-04-16T04:29:01;6.15;;;5.75;;
73168;SDS011;61379;59.732;30.468;2023-04-16T04:31:28;6.95;;;6.35;;
73168;SDS011;61379;59.732;30.468;2023-04-16T04:33:55;7.88;;;6.40;;
73168;SDS011;61379;59.732;30.468;2023-04-16T04:36:21;6.88;;;6.38;;
73168;SDS011;61379;59.732;30.468;2023-04-16T04:38:48;8.30;;;7.60;;
73168;SDS011;61379;59.732;30.468;2023-04-16T04:41:15;7.57;;;6.95;;
73168;SDS011;61379;59.732;30.468;2023-04-16T04:43:42;7.05;;;6.60;;
73168;SDS011;61379;59.732;30.468;2023-04-16T04:46:10;7.38;;;6.78;;
73168;SDS011;61379;59.732;30.468;2023-04-16T04:48:36;6.88;;;6.32;;
73168;SDS011;61379;59.732;30.468;2023-04-16T04:51:03;6.97;;;6.47;;
73168;SDS011;61379;59.732;30.468;2023-04-16T04:53:30;6.63;;;6.13;;
73168;SDS011;61379;59.732;30.468;2023-04-16T04:55:57;6.93;;;6.32;;
73168;SDS011;61379;59.732;30.468;2023-04-16T04:58:23;7.20;;;6.60;;
73168;SDS011;61379;59.732;30.468;2023-04-16T05:00:50;8.85;;;8.05;;
73168;SDS011;61379;59.732;30.468;2023-04-16T05:03:19;7.00;;;6.45;;
73168;SDS011;61379;59.732;30.468;2023-04-16T05:05:46;7.80;;;7.20;;
73168;SDS011;61379;59.732;30.468;2023-04-16T05:08:13;7.57;;;6.97;;
73168;SDS011;61379;59.732;30.468;2023-04-16T05:10:40;8.60;;;7.70;;
73168;SDS011;61379;59.732;30.468;2023-04-16T05:13:08;7.38;;;6.68;;
73168;SDS011;61379;59.732;30.468;2023-04-16T05:15:34;7.35;;;6.60;;
73168;SDS011;61379;59.732;30.468;2023-04-16T05:18:02;7.65;;;6.70;;
73168;SDS011;61379;59.732;30.468;2023-04-16T05:20:30;7.38;;;6.88;;
73168;SDS011;61379;59.732;30.468;2023-04-16T05:22:56;8.25;;;7.65;;
73168;SDS011;61379;59.732;30.468;2023-04-16T05:25:23;7.18;;;6.60;;
73168;SDS011;61379;59.732;30.468;2023-04-16T05:27:50;7.07;;;6.57;;
73168;SDS011;61379;59.732;30.468;2023-04-16T05:30:17;7.38;;;6.68;;
73168;SDS011;61379;59.732;30.468;2023-04-16T05:32:43;6.55;;;6.05;;
73168;SDS011;61379;59.732;30.468;2023-04-16T05:35:10;7.10;;;6.50;;
73168;SDS011;61379;59.732;30.468;2023-04-16T05:37:38;6.78;;;6.18;;
73168;SDS011;61379;59.732;30.468;2023-04-16T05:40:05;7.00;;;6.35;;
73168;SDS011;61379;59.732;30.468;2023-04-16T05:42:32;6.47;;;5.97;;
73168;SDS011;61379;59.732;30.468;2023-04-16T05:45:00;7.32;;;6.55;;
73168;SDS011;61379;59.732;30.468;2023-04-16T05:47:30;6.30;;;5.80;;
73168;SDS011;61379;59.732;30.468;2023-04-16T05:49:56;8.00;;;5.80;;
73168;SDS011;61379;59.732;30.468;2023-04-16T05:52:23;6.80;;;6.20;;
73168;SDS011;61379;59.732;30.468;2023-04-16T05:54:51;7.93;;;6.82;;
73168;SDS011;61379;59.732;30.468;2023-04-16T05:57:18;6.82;;;6.32;;
73168;SDS011;61379;59.732;30.468;2023-04-16T05:59:45;8.05;;;7.45;;
73168;SDS011;61379;59.732;30.468;2023-04-16T06:02:11;8.45;;;7.57;;
73168;SDS011;61379;59.732;30.468;2023-04-16T06:04:38;8.23;;;7.43;;
73168;SDS011;61379;59.732;30.468;2023-04-16T06:07:05;11.00;;;8.07;;
73168;SDS011;61379;59.732;30.468;2023-04-16T06:09:32;7.28;;;6.68;;
73168;SDS011;61379;59.732;30.468;2023-04-16T06:12:00;7.72;;;6.95;;
73168;SDS011;61379;59.732;30.468;2023-04-16T06:14:27;6.97;;;6.47;;
73168;SDS011;61379;59.732;30.468;2023-04-16T06:16:53;6.57;;;5.97;;
73168;SDS011;61379;59.732;30.468;2023-04-16T06:19:20;6.43;;;5.82;;
73168;SDS011;61379;59.732;30.468;2023-04-16T06:21:47;7.35;;;6.70;;
73168;SDS011;61379;59.732;30.468;2023-04-16T06:24:14;7.22;;;6.53;;
73168;SDS011;61379;59.732;30.468;2023-04-16T06:26:40;6.78;;;6.18;;
73168;SDS011;61379;59.732;30.468;2023-04-16T06:29:08;7.78;;;7.07;;
73168;SDS011;61379;59.732;30.468;2023-04-16T06:31:36;7.03;;;6.35;;
73168;SDS011;61379;59.732;30.468;2023-04-16T06:34:02;6.70;;;6.20;;
73168;SDS011;61379;59.732;30.468;2023-04-16T06:36:29;7.28;;;6.57;;
73168;SDS011;61379;59.732;30.468;2023-04-16T06:38:56;8.45;;;6.75;;
73168;SDS011;61379;59.732;30.468;2023-04-16T06:41:22;7.57;;;6.88;;
73168;SDS011;61379;59.732;30.468;2023-04-16T06:43:51;7.30;;;6.60;;
73168;SDS011;61379;59.732;30.468;2023-04-16T06:46:19;7.60;;;7.00;;
73168;SDS011;61379;59.732;30.468;2023-04-16T06:48:45;9.15;;;7.97;;
73168;SDS011;61379;59.732;30.468;2023-04-16T06:51:12;6.90;;;6.30;;
73168;SDS011;61379;59.732;30.468;2023-04-16T06:53:39;8.43;;;7.72;;
73168;SDS011;61379;59.732;30.468;2023-04-16T06:56:07;7.95;;;6.80;;
73168;SDS011;61379;59.732;30.468;2023-04-16T06:58:33;7.00;;;6.40;;
73168;SDS011;61379;59.732;30.468;2023-04-16T07:01:00;6.68;;;6.07;;
73168;SDS011;61379;59.732;30.468;2023-04-16T07:03:29;6.50;;;5.90;;
73168;SDS011;61379;59.732;30.468;2023-04-16T07:05:56;7.35;;;6.57;;
73168;SDS011;61379;59.732;30.468;2023-04-16T07:08:23;11.10;;;6.88;;
73168;SDS011;61379;59.732;30.468;2023-04-16T07:10:50;8.05;;;7.25;;
73168;SDS011;61379;59.732;30.468;2023-04-16T07:13:18;9.35;;;7.10;;
73168;SDS011;61379;59.732;30.468;2023-04-16T07:15:44;8.30;;;7.45;;
73168;SDS011;61379;59.732;30.468;2023-04-16T07:18:11;9.77;;;7.13;;
73168;SDS011;61379;59.732;30.468;2023-04-16T07:20:39;7.55;;;6.78;;
73168;SDS011;61379;59.732;30.468;2023-04-16T07:23:06;9.07;;;6.32;;
73168;SDS011;61379;59.732;30.468;2023-04-16T07:25:33;7.97;;;7.18;;
73168;SDS011;61379;59.732;30.468;2023-04-16T07:27:59;9.25;;;6.88;;
73168;SDS011;61379;59.732;30.468;2023-04-16T07:30:26;9.55;;;8.52;;
73168;SDS011;61379;59.732;30.468;2023-04-16T07:32:58;8.05;;;6.88;;
73168;SDS011;61379;59.732;30.468;2023-04-16T07:35:24;9.38;;;7.07;;
73168;SDS011;61379;59.732;30.468;2023-04-16T07:37:53;7.97;;;7.15;;
73168;SDS011;61379;59.732;30.468;2023-04-16T07:40:19;7.63;;;6.55;;
73168;SDS011;61379;59.732;30.468;2023-04-16T07:42:46;15.68;;;7.47;;
73168;SDS011;61379;59.732;30.468;2023-04-16T07:45:13;8.77;;;7.28;;
73168;SDS011;61379;59.732;30.468;2023-04-16T07:47:39;10.45;;;6.72;;
73168;SDS011;61379;59.732;30.468;2023-04-16T07:50:06;9.13;;;7.10;;
73168;SDS011;61379;59.732;30.468;2023-04-16T07:52:33;8.82;;;7.78;;
73168;SDS011;61379;59.732;30.468;2023-04-16T07:55:03;9.43;;;7.13;;
73168;SDS011;61379;59.732;30.468;2023-04-16T07:57:30;9.80;;;7.35;;
73168;SDS011;61379;59.732;30.468;2023-04-16T07:59:56;9.70;;;7.43;;
73168;SDS011;61379;59.732;30.468;2023-04-16T08:02:23;8.70;;;7.55;;
73168;SDS011;61379;59.732;30.468;2023-04-16T08:04:50;9.27;;;8.15;;
73168;SDS011;61379;59.732;30.468;2023-04-16T08:07:16;9.88;;;7.50;;
73168;SDS011;61379;59.732;30.468;2023-04-16T08:09:46;8.77;;;7.68;;
73168;SDS011;61379;59.732;30.468;2023-04-16T08:12:15;12.60;;;7.30;;
73168;SDS011;61379;59.732;30.468;2023-04-16T08:14:42;7.15;;;6.43;;
73168;SDS011;61379;59.732;30.468;2023-04-16T08:17:10;10.88;;;7.22;;
73168;SDS011;61379;59.732;30.468;2023-04-16T08:19:37;7.88;;;6.97;;
73168;SDS011;61379;59.732;30.468;2023-04-16T08:22:04;11.00;;;7.10;;
73168;SDS011;61379;59.732;30.468;2023-04-16T08:24:30;10.70;;;8.05;;
73168;SDS011;61379;59.732;30.468;2023-04-16T08:26:57;7.80;;;6.60;;
73168;SDS011;61379;59.732;30.468;2023-04-16T08:29:25;9.38;;;8.07;;
73168;SDS011;61379;59.732;30.468;2023-04-16T08:31:52;7.28;;;6.57;;
73168;SDS011;61379;59.732;30.468;2023-04-16T08:34:19;10.30;;;7.65;;
73168;SDS011;61379;59.732;30.468;2023-04-16T08:36:45;14.75;;;9.13;;
73168;SDS011;61379;59.732;30.468;2023-04-16T08:39:12;13.07;;;8.93;;
73168;SDS011;61379;59.732;30.468;2023-04-16T08:41:40;11.93;;;9.02;;
73168;SDS011;61379;59.732;30.468;2023-04-16T08:44:07;10.45;;;8.63;;
73168;SDS011;61379;59.732;30.468;2023-04-16T08:46:36;10.25;;;9.23;;
73168;SDS011;61379;59.732;30.468;2023-04-16T08:49:04;14.27;;;8.02;;
73168;SDS011;61379;59.732;30.468;2023-04-16T08:51:32;12.40;;;9.02;;
73168;SDS011;61379;59.732;30.468;2023-04-16T08:54:01;9.75;;;8.38;;
73168;SDS011;61379;59.732;30.468;2023-04-16T08:56:28;10.45;;;7.65;;
73168;SDS011;61379;59.732;30.468;2023-04-16T08:58:56;10.20;;;8.82;;
73168;SDS011;61379;59.732;30.468;2023-04-16T09:01:26;11.18;;;8.63;;
73168;SDS011;61379;59.732;30.468;2023-04-16T09:03:54;10.27;;;8.85;;
73168;SDS011;61379;59.732;30.468;2023-04-16T09:06:21;9.68;;;8.40;;
73168;SDS011;61379;59.732;30.468;2023-04-16T09:08:47;13.90;;;9.02;;
73168;SDS011;61379;59.732;30.468;2023-04-16T09:11:15;11.27;;;10.27;;
73168;SDS011;61379;59.732;30.468;2023-04-16T09:13:43;10.35;;;9.25;;
73168;SDS011;61379;59.732;30.468;2023-04-16T09:16:10;13.85;;;9.50;;
73168;SDS011;61379;59.732;30.468;2023-04-16T09:18:38;16.15;;;9.93;;
73168;SDS011;61379;59.732;30.468;2023-04-16T09:21:06;12.68;;;9.27;;
73168;SDS011;61379;59.732;30.468;2023-04-16T09:23:34;12.27;;;11.02;;
73168;SDS011;61379;59.732;30.468;2023-04-16T09:26:03;12.00;;;9.20;;
73168;SDS011;61379;59.732;30.468;2023-04-16T09:28:40;10.30;;;9.30;;
73168;SDS011;61379;59.732;30.468;2023-04-16T09:31:07;11.32;;;9.48;;
73168;SDS011;61379;59.732;30.468;2023-04-16T09:33:34;14.32;;;10.30;;
73168;SDS011;61379;59.732;30.468;2023-04-16T09:36:01;14.38;;;9.80;;
73168;SDS011;61379;59.732;30.468;2023-04-16T09:38:42;15.70;;;10.77;;
73168;SDS011;61379;59.732;30.468;2023-04-16T09:41:11;10.18;;;9.13;;
73168;SDS011;61379;59.732;30.468;2023-04-16T09:43:37;13.15;;;9.82;;
73168;SDS011;61379;59.732;30.468;2023-04-16T09:46:04;10.90;;;9.48;;
73168;SDS011;61379;59.732;30.468;2023-04-16T09:48:31;13.23;;;9.18;;
73168;SDS011;61379;59.732;30.468;2023-04-16T09:50:59;14.43;;;9.10;;
73168;SDS011;61379;59.732;30.468;2023-04-16T09:53:26;13.18;;;9.23;;
73168;SDS011;61379;59.732;30.468;2023-04-16T09:55:56;11.48;;;10.27;;
73168;SDS011;61379;59.732;30.468;2023-04-16T09:58:23;10.60;;;9.45;;
73168;SDS011;61379;59.732;30.468;2023-04-16T10:00:54;15.77;;;10.20;;
73168;SDS011;61379;59.732;30.468;2023-04-16T10:03:27;10.75;;;9.73;;
73168;SDS011;61379;59.732;30.468;2023-04-16T10:05:54;14.63;;;12.07;;
73168;SDS011;61379;59.732;30.468;2023-04-16T10:08:21;11.98;;;9.57;;
73168;SDS011;61379;59.732;30.468;2023-04-16T10:10:49;12.02;;;10.23;;
73168;SDS011;61379;59.732;30.468;2023-04-16T10:13:17;11.35;;;10.07;;
73168;SDS011;61379;59.732;30.468;2023-04-16T10:15:44;16.75;;;13.00;;
73168;SDS011;61379;59.732;30.468;2023-04-16T10:18:11;11.55;;;10.07;;
73168;SDS011;61379;59.732;30.468;2023-04-16T10:20:38;12.55;;;10.50;;
73168;SDS011;61379;59.732;30.468;2023-04-16T10:23:05;15.75;;;10.90;;
73168;SDS011;61379;59.732;30.468;2023-04-16T10:25:32;15.98;;;10.90;;
73168;SDS011;61379;59.732;30.468;2023-04-16T10:27:59;12.45;;;10.10;;
73168;SDS011;61379;59.732;30.468;2023-04-16T10:30:27;12.63;;;10.25;;
73168;SDS011;61379;59.732;30.468;2023-04-16T10:32:54;11.88;;;10.15;;
73168;SDS011;61379;59.732;30.468;2023-04-16T10:35:21;10.32;;;9.23;;
73168;SDS011;61379;59.732;30.468;2023-04-16T10:37:54;13.02;;;10.05;;
73168;SDS011;61379;59.732;30.468;2023-04-16T10:40:22;11.75;;;9.52;;
73168;SDS011;61379;59.732;30.468;2023-04-16T10:42:58;14.13;;;11.50;;
73168;SDS011;61379;59.732;30.468;2023-04-16T10:45:30;14.85;;;10.70;;
73168;SDS011;61379;59.732;30.468;2023-04-16T10:47:57;14.45;;;9.63;;
73168;SDS011;61379;59.732;30.468;2023-04-16T10:50:24;12.65;;;9.90;;
73168;SDS011;61379;59.732;30.468;2023-04-16T10:53:18;13.48;;;12.07;;
73168;SDS011;61379;59.732;30.468;2023-04-16T10:55:58;11.80;;;9.02;;
73168;SDS011;61379;59.732;30.468;2023-04-16T10:58:35;11.60;;;9.90;;
73168;SDS011;61379;59.732;30.468;2023-04-16T11:01:06;9.65;;;8.65;;
73168;SDS011;61379;59.732;30.468;2023-04-16T11:03:39;14.18;;;12.68;;
73168;SDS011;61379;59.732;30.468;2023-04-16T11:06:13;13.23;;;9.77;;
73168;SDS011;61379;59.732;30.468;2023-04-16T11:08:41;16.77;;;9.25;;
73168;SDS011;61379;59.732;30.468;2023-04-16T11:11:10;11.88;;;9.35;;
73168;SDS011;61379;59.732;30.468;2023-04-16T11:13:37;10.52;;;9.10;;
73168;SDS011;61379;59.732;30.468;2023-04-16T11:16:04;12.18;;;8.40;;
73168;SDS011;61379;59.732;30.468;2023-04-16T11:21:00;11.63;;;9.57;;
73168;SDS011;61379;59.732;30.468;2023-04-16T11:23:27;11.23;;;9.57;;
73168;SDS011;61379;59.732;30.468;2023-04-16T11:25:54;10.52;;;9.38;;
73168;SDS011;61379;59.732;30.468;2023-04-16T11:28:32;15.55;;;9.27;;
73168;SDS011;61379;59.732;30.468;2023-04-16T11:30:59;11.80;;;8.80;;
73168;SDS011;61379;59.732;30.468;2023-04-16T11:33:34;9.80;;;8.80;;
73168;SDS011;61379;59.732;30.468;2023-04-16T11:36:02;10.82;;;8.95;;
73168;SDS011;61379;59.732;30.468;2023-04-16T11:38:33;9.73;;;7.93;;
73168;SDS011;61379;59.732;30.468;2023-04-16T11:41:01;11.70;;;8.55;;
73168;SDS011;61379;59.732;30.468;2023-04-16T11:43:27;10.20;;;8.35;;
73168;SDS011;61379;59.732;30.468;2023-04-16T11:45:58;12.23;;;8.57;;
73168;SDS011;61379;59.732;30.468;2023-04-16T11:48:25;10.38;;;9.27;;
73168;SDS011;61379;59.732;30.468;2023-04-16T11:50:55;10.10;;;9.20;;
73168;SDS011;61379;59.732;30.468;2023-04-16T11:53:23;9.75;;;8.57;;
73168;SDS011;61379;59.732;30.468;2023-04-16T11:55:50;12.48;;;9.15;;
73168;SDS011;61379;59.732;30.468;2023-04-16T11:58:17;10.07;;;8.88;;
73168;SDS011;61379;59.732;30.468;2023-04-16T12:00:46;11.23;;;10.15;;
73168;SDS011;61379;59.732;30.468;2023-04-16T12:03:13;10.63;;;8.68;;
73168;SDS011;61379;59.732;30.468;2023-04-16T12:05:40;16.38;;;11.50;;
73168;SDS011;61379;59.732;30.468;2023-04-16T12:08:07;10.30;;;8.32;;
73168;SDS011;61379;59.732;30.468;2023-04-16T12:10:36;10.68;;;8.80;;
73168;SDS011;61379;59.732;30.468;2023-04-16T12:15:41;9.02;;;7.95;;
73168;SDS011;61379;59.732;30.468;2023-04-16T12:18:08;9.13;;;8.13;;
73168;SDS011;61379;59.732;30.468;2023-04-16T12:20:38;9.48;;;8.57;;
73168;SDS011;61379;59.732;30.468;2023-04-16T12:23:04;9.40;;;8.48;;
73168;SDS011;61379;59.732;30.468;2023-04-16T12:25:32;10.00;;;8.80;;
73168;SDS011;61379;59.732;30.468;2023-04-16T12:28:00;12.15;;;8.73;;
73168;SDS011;61379;59.732;30.468;2023-04-16T12:30:27;10.13;;;8.85;;
73168;SDS011;61379;59.732;30.468;2023-04-16T12:35:37;9.73;;;7.80;;
73168;SDS011;61379;59.732;30.468;2023-04-16T12:38:06;14.25;;;10.95;;
73168;SDS011;61379;59.732;30.468;2023-04-16T12:40:32;10.95;;;9.07;;
73168;SDS011;61379;59.732;30.468;2023-04-16T12:43:01;9.10;;;8.13;;
73168;SDS011;61379;59.732;30.468;2023-04-16T12:45:28;8.38;;;7.50;;
73168;SDS011;61379;59.732;30.468;2023-04-16T12:47:55;12.00;;;9.77;;
73168;SDS011;61379;59.732;30.468;2023-04-16T12:50:22;9.00;;;7.72;;
73168;SDS011;61379;59.732;30.468;2023-04-16T12:52:49;12.82;;;9.40;;
73168;SDS011;61379;59.732;30.468;2023-04-16T12:55:16;11.70;;;10.50;;
73168;SDS011;61379;59.732;30.468;2023-04-16T12:57:43;9.15;;;8.07;;
73168;SDS011;61379;59.732;30.468;2023-04-16T13:00:11;9.68;;;8.65;;
73168;SDS011;61379;59.732;30.468;2023-04-16T13:02:39;8.65;;;7.75;;
73168;SDS011;61379;59.732;30.468;2023-04-16T13:05:06;13.15;;;8.27;;
73168;SDS011;61379;59.732;30.468;2023-04-16T13:07:33;11.05;;;7.93;;
73168;SDS011;61379;59.732;30.468;2023-04-16T13:10:00;11.98;;;8.07;;
73168;SDS011;61379;59.732;30.468;2023-04-16T13:12:26;10.68;;;8.07;;
73168;SDS011;61379;59.732;30.468;2023-04-16T13:14:54;9.23;;;7.75;;
73168;SDS011;61379;59.732;30.468;2023-04-16T13:17:22;11.88;;;8.00;;
73168;SDS011;61379;59.732;30.468;2023-04-16T13:19:48;9.63;;;7.93;;
73168;SDS011;61379;59.732;30.468;2023-04-16T13:22:15;9.27;;;8.23;;
73168;SDS011;61379;59.732;30.468;2023-04-16T13:24:42;10.30;;;7.82;;
73168;SDS011;61379;59.732;30.468;2023-04-16T13:27:09;11.35;;;8.02;;
73168;SDS011;61379;59.732;30.468;2023-04-16T13:29:37;11.95;;;7.88;;
73168;SDS011;61379;59.732;30.468;2023-04-16T13:32:04;9.63;;;7.32;;
73168;SDS011;61379;59.732;30.468;2023-04-16T13:34:32;11.90;;;8.05;;
73168;SDS011;61379;59.732;30.468;2023-04-16T13:36:59;9.48;;;8.48;;
73168;SDS011;61379;59.732;30.468;2023-04-16T13:39:26;10.10;;;7.82;;
73168;SDS011;61379;59.732;30.468;2023-04-16T13:41:52;10.82;;;9.70;;
73168;SDS011;61379;59.732;30.468;2023-04-16T13:44:19;9.70;;;8.02;;
73168;SDS011;61379;59.732;30.468;2023-04-16T13:46:46;9.52;;;7.40;;
73168;SDS011;61379;59.732;30.468;2023-04-16T13:49:12;10.57;;;8.43;;
73168;SDS011;61379;59.732;30.468;2023-04-16T13:51:41;11.25;;;7.50;;
73168;SDS011;61379;59.732;30.468;2023-04-16T13:54:08;8.77;;;7.88;;
73168;SDS011;61379;59.732;30.468;2023-04-16T13:56:35;12.02;;;8.38;;
73168;SDS011;61379;59.732;30.468;2023-04-16T13:59:01;11.93;;;8.40;;
73168;SDS011;61379;59.732;30.468;2023-04-16T14:01:28;13.75;;;8.77;;
73168;SDS011;61379;59.732;30.468;2023-04-16T14:03:55;9.20;;;7.63;;
73168;SDS011;61379;59.732;30.468;2023-04-16T14:06:21;11.63;;;8.07;;
73168;SDS011;61379;59.732;30.468;2023-04-16T14:08:50;9.80;;;8.02;;
73168;SDS011;61379;59.732;30.468;2023-04-16T14:11:16;11.40;;;8.15;;
73168;SDS011;61379;59.732;30.468;2023-04-16T14:13:43;11.25;;;8.23;;
73168;SDS011;61379;59.732;30.468;2023-04-16T14:16:10;10.85;;;7.88;;
73168;SDS011;61379;59.732;30.468;2023-04-16T14:18:37;9.52;;;7.68;;
73168;SDS011;61379;59.732;30.468;2023-04-16T14:21:06;11.23;;;7.88;;
73168;SDS011;61379;59.732;30.468;2023-04-16T14:23:33;9.82;;;6.65;;
73168;SDS011;61379;59.732;30.468;2023-04-16T14:26:02;10.30;;;7.65;;
73168;SDS011;61379;59.732;30.468;2023-04-16T14:28:28;11.18;;;7.20;;
73168;SDS011;61379;59.732;30.468;2023-04-16T14:30:55;10.63;;;7.90;;
73168;SDS011;61379;59.732;30.468;2023-04-16T14:33:22;8.98;;;6.97;;
73168;SDS011;61379;59.732;30.468;2023-04-16T14:35:49;10.52;;;6.88;;
73168;SDS011;61379;59.732;30.468;2023-04-16T14:38:16;13.30;;;7.60;;